Time;durP1;ratioP1;P1;durP2;ratioP2;P2;SDS_P1;SDS_P2;PMS_P1;PMS_P2;Temp;Humidity;BMP_temperature;BMP_pressure;BME280_temperature;BME280_humidity;BME280_pressure;Samples;Min_cycle;Max_cycle;Signal;HPM_P1;HPM_P2
2023/08/26 00:01:57;;;;;;;7.75;6.15;;;;;;;32.30;30.43;96385.81;5076377;28;20036;-33
2023/08/26 00:04:23;;;;;;;7.75;6.72;;;;;;;32.23;30.16;96389.44;5080845;28;20492;-32
2023/08/26 00:06:49;;;;;;;7.47;6.55;;;;;;;32.21;29.95;96380.84;5080121;28;20500;-34
2023/08/26 00:09:16;;;;;;;7.32;6.38;;;;;;;32.15;30.25;96385.19;5079739;28;20031;-31
2023/08/26 00:11:42;;;;;;;7.03;6.35;;;;;;;32.33;29.80;96386.72;5071419;28;20469;-31
2023/08/26 00:14:07;;;;;;;8.52;6.70;;;;;;;32.29;29.31;96380.75;5079672;28;20032;-31
2023/08/26 00:16:33;;;;;;;8.07;7.28;;;;;;;32.35;29.38;96370.81;5087624;28;20052;-31
2023/08/26 00:18:59;;;;;;;8.55;6.28;;;;;;;32.24;29.31;96376.88;5078276;28;20024;-31
2023/08/26 00:21:28;;;;;;;6.90;6.20;;;;;;;32.20;30.07;96379.34;5075334;28;20021;-30
2023/08/26 00:23:54;;;;;;;7.32;6.63;;;;;;;32.09;29.71;96374.91;5086812;28;20033;-30
2023/08/26 00:26:20;;;;;;;7.72;6.25;;;;;;;32.17;29.90;96377.66;5072723;28;20024;-31
2023/08/26 00:28:46;;;;;;;12.32;6.78;;;;;;;32.17;29.75;96366.44;5082120;28;20040;-31
2023/08/26 00:31:11;;;;;;;9.63;6.75;;;;;;;32.23;29.49;96372.59;5078326;28;20031;-31
2023/08/26 00:33:37;;;;;;;7.45;6.55;;;;;;;32.17;29.54;96372.03;5079670;28;20032;-31
2023/08/26 00:36:03;;;;;;;7.50;6.75;;;;;;;32.15;29.47;96382.38;5079743;28;20466;-30
2023/08/26 00:38:28;;;;;;;7.97;6.40;;;;;;;32.07;29.57;96371.94;5079437;28;20023;-31
2023/08/26 00:40:54;;;;;;;8.45;7.20;;;;;;;31.84;30.05;96373.44;5081961;28;20032;-31
2023/08/26 00:43:20;;;;;;;11.13;6.45;;;;;;;32.13;29.94;96372.47;5083272;28;20103;-31
2023/08/26 00:45:48;;;;;;;9.40;6.75;;;;;;;32.12;29.37;96370.97;5081766;28;20024;-30
2023/08/26 00:48:15;;;;;;;8.40;6.85;;;;;;;32.10;29.71;96367.25;5075570;28;20020;-30
2023/08/26 00:50:43;;;;;;;7.55;6.45;;;;;;;32.24;29.35;96371.28;5084238;28;20480;-30
2023/08/26 00:53:11;;;;;;;8.77;7.20;;;;;;;32.10;29.40;96356.78;5080292;28;20043;-31
2023/08/26 00:55:37;;;;;;;7.05;6.40;;;;;;;32.06;29.16;96362.03;5079294;28;20023;-30
2023/08/26 00:58:05;;;;;;;7.60;6.47;;;;;;;31.97;29.07;96361.94;5078130;28;20502;-31
2023/08/26 01:00:31;;;;;;;7.32;6.10;;;;;;;32.18;29.08;96358.75;5086362;28;20035;-30
2023/08/26 01:02:57;;;;;;;7.22;6.20;;;;;;;32.22;28.97;96362.69;5078228;28;20028;-31
2023/08/26 01:05:23;;;;;;;7.22;6.47;;;;;;;32.04;29.54;96361.84;5077268;28;20374;-32
2023/08/26 01:07:49;;;;;;;7.05;6.28;;;;;;;32.17;29.20;96360.06;5086793;28;20020;-31
2023/08/26 01:10:15;;;;;;;8.00;6.97;;;;;;;32.07;29.37;96357.16;5077842;28;20021;-31
2023/08/26 01:12:58;;;;;;;7.80;7.00;;;;;;;32.15;28.65;96352.22;5086528;28;20362;-30
2023/08/26 01:15:24;;;;;;;;;;;;;;;31.85;29.13;96353.22;5077427;28;20025;-31
2023/08/26 01:17:50;;;;;;;7.35;6.57;;;;;;;32.09;28.95;96354.53;5083270;28;20001;-31
2023/08/26 01:20:16;;;;;;;9.05;6.50;;;;;;;32.11;28.99;96349.84;5082990;28;20035;-31
2023/08/26 01:22:44;;;;;;;7.40;6.60;;;;;;;32.04;28.90;96355.50;5083224;28;20028;-31
2023/08/26 01:25:09;;;;;;;7.85;6.35;;;;;;;32.01;28.20;96348.25;5082843;28;20027;-30
2023/08/26 01:27:35;;;;;;;7.30;6.55;;;;;;;32.04;28.86;96342.22;5082943;28;20020;-32
2023/08/26 01:30:01;;;;;;;7.57;6.20;;;;;;;32.07;28.28;96345.94;5082602;28;20024;-31
2023/08/26 01:32:43;;;;;;;6.90;6.07;;;;;;;31.89;28.93;96347.22;5082280;28;20026;-30
2023/08/26 01:35:13;;;;;;;7.35;6.65;;;;;;;32.10;28.37;96333.59;5079197;28;20016;-33
2023/08/26 01:37:41;;;;;;;9.27;6.75;;;;;;;32.12;27.95;96333.75;5076718;28;20024;-31
2023/08/26 01:40:09;;;;;;;6.80;6.15;;;;;;;32.04;28.77;96335.88;5078851;28;20039;-30
2023/08/26 01:42:37;;;;;;;7.78;6.90;;;;;;;31.95;28.59;96328.09;5079365;28;20025;-30
2023/08/26 01:45:05;;;;;;;7.32;6.65;;;;;;;32.00;28.69;96319.47;5090084;28;20363;-30
2023/08/26 01:47:31;;;;;;;7.95;6.63;;;;;;;31.93;28.47;96323.06;5082363;28;20099;-31
2023/08/26 01:49:56;;;;;;;7.50;6.80;;;;;;;32.09;28.01;96320.88;5083058;28;20032;-30
2023/08/26 01:52:22;;;;;;;7.47;6.47;;;;;;;32.17;28.20;96318.72;5085842;28;20081;-31
2023/08/26 01:54:49;;;;;;;7.95;6.68;;;;;;;32.15;28.24;96321.38;5078594;28;20044;-31
2023/08/26 01:57:15;;;;;;;7.22;6.53;;;;;;;32.08;28.21;96320.13;5084499;28;20024;-30
2023/08/26 01:59:41;;;;;;;6.93;6.32;;;;;;;32.19;27.79;96318.94;5085751;28;20020;-31
2023/08/26 02:02:06;;;;;;;7.07;6.47;;;;;;;31.86;28.23;96323.88;5084112;28;20398;-31
2023/08/26 02:04:32;;;;;;;6.90;6.20;;;;;;;31.97;28.64;96303.03;5085643;28;20020;-31
2023/08/26 02:06:57;;;;;;;7.15;6.50;;;;;;;32.07;27.87;96303.88;5084784;28;20044;-31
2023/08/26 02:09:22;;;;;;;7.40;6.63;;;;;;;32.07;27.77;96306.66;5076998;28;20021;-30
2023/08/26 02:11:48;;;;;;;8.13;6.65;;;;;;;32.10;27.79;96299.91;5081051;28;20021;-30
2023/08/26 02:14:13;;;;;;;7.43;6.45;;;;;;;32.06;28.01;96305.19;5073034;28;20034;-31
2023/08/26 02:16:39;;;;;;;6.72;6.13;;;;;;;32.12;27.63;96300.84;5084965;28;20076;-30
2023/08/26 02:19:04;;;;;;;7.95;6.00;;;;;;;32.11;27.42;96301.41;5086677;28;20033;-30
2023/08/26 02:21:30;;;;;;;7.15;5.43;;;;;;;32.15;27.64;96298.19;5074264;28;20469;-30
2023/08/26 02:23:55;;;;;;;6.13;5.53;;;;;;;32.02;27.38;96299.97;5081690;28;20081;-31
2023/08/26 02:26:21;;;;;;;6.88;6.07;;;;;;;32.04;26.86;96296.59;5075005;28;20012;-31
2023/08/26 02:28:46;;;;;;;7.60;6.22;;;;;;;32.10;26.83;96291.50;5084146;28;20359;-31
2023/08/26 02:31:12;;;;;;;6.95;5.95;;;;;;;32.07;26.56;96287.03;5087280;28;20351;-31
2023/08/26 02:33:37;;;;;;;7.95;5.28;;;;;;;31.98;26.98;96288.44;5081698;28;20024;-30
2023/08/26 02:36:03;;;;;;;6.32;5.63;;;;;;;31.89;26.44;96289.06;5081419;28;20017;-31
2023/08/26 02:38:31;;;;;;;7.95;5.70;;;;;;;31.76;26.05;96292.91;5081419;28;20074;-31
2023/08/26 02:40:57;;;;;;;7.30;5.35;;;;;;;31.95;25.60;96277.59;5081496;28;20159;-30
2023/08/26 02:43:22;;;;;;;5.63;5.00;;;;;;;31.90;25.49;96282.13;5081495;28;20060;-31
2023/08/26 02:45:52;;;;;;;8.60;5.50;;;;;;;31.87;25.92;96280.50;5081698;28;20020;-30
2023/08/26 02:48:17;;;;;;;7.22;5.45;;;;;;;31.75;26.59;96280.22;5081295;28;20111;-30
2023/08/26 02:50:43;;;;;;;6.10;5.50;;;;;;;31.83;26.60;96285.00;5081358;28;20521;-30
2023/08/26 02:53:08;;;;;;;6.35;5.60;;;;;;;31.66;26.98;96285.69;5074234;28;20028;-30
2023/08/26 02:55:33;;;;;;;7.18;5.90;;;;;;;31.83;26.64;96282.94;5086833;28;20090;-31
2023/08/26 02:57:59;;;;;;;7.28;6.10;;;;;;;31.80;26.78;96284.09;5081564;28;20024;-30
2023/08/26 03:00:24;;;;;;;7.03;6.32;;;;;;;31.65;27.25;96268.13;5089008;28;20022;-30
2023/08/26 03:02:50;;;;;;;7.95;6.85;;;;;;;31.72;27.29;96275.75;5087429;28;20020;-30
2023/08/26 03:05:15;;;;;;;7.22;6.50;;;;;;;31.69;28.19;96282.47;5081686;28;20027;-31
2023/08/26 03:07:41;;;;;;;10.15;6.88;;;;;;;31.85;27.57;96271.91;5085076;28;20020;-31
2023/08/26 03:10:07;;;;;;;8.68;6.72;;;;;;;31.86;27.86;96270.59;5076437;28;20066;-31
2023/08/26 03:12:32;;;;;;;8.48;6.78;;;;;;;31.88;28.15;96270.00;5081084;28;20020;-31
2023/08/26 03:14:57;;;;;;;10.93;6.63;;;;;;;31.88;28.69;96267.97;5079262;28;20020;-30
2023/08/26 03:17:23;;;;;;;7.78;6.72;;;;;;;31.77;28.85;96274.75;5076169;28;20105;-31
2023/08/26 03:19:48;;;;;;;7.60;6.65;;;;;;;31.57;29.08;96275.81;5083732;28;20027;-30
2023/08/26 03:22:14;;;;;;;7.53;6.75;;;;;;;31.58;29.58;96265.34;5084876;28;20021;-31
2023/08/26 03:24:39;;;;;;;7.47;6.75;;;;;;;31.58;29.82;96252.09;5081981;28;20016;-29
2023/08/26 03:27:05;;;;;;;9.23;6.72;;;;;;;31.55;29.84;96253.22;5086461;28;20022;-32
2023/08/26 03:29:30;;;;;;;9.00;6.97;;;;;;;31.62;29.11;96258.03;5080770;28;20107;-30
2023/08/26 03:31:56;;;;;;;7.95;6.63;;;;;;;31.41;29.83;96258.38;5080949;28;20074;-30
2023/08/26 03:34:21;;;;;;;8.02;7.22;;;;;;;31.59;29.07;96253.56;5073499;28;20491;-30
2023/08/26 03:36:47;;;;;;;9.27;7.38;;;;;;;31.65;29.09;96256.19;5081194;28;20020;-30
2023/08/26 03:39:13;;;;;;;9.80;7.03;;;;;;;31.67;29.31;96265.50;5079228;28;20111;-30
2023/08/26 03:41:38;;;;;;;8.65;7.28;;;;;;;31.52;29.76;96259.25;5080337;28;20108;-30
2023/08/26 03:44:04;;;;;;;7.60;6.80;;;;;;;31.65;29.31;96261.78;5080166;28;20057;-30
2023/08/26 03:46:30;;;;;;;10.18;7.40;;;;;;;31.66;29.61;96258.41;5081091;28;20033;-31
2023/08/26 03:48:55;;;;;;;8.02;6.97;;;;;;;31.58;29.46;96259.75;5080505;28;20027;-31
2023/08/26 03:51:21;;;;;;;7.38;6.60;;;;;;;31.24;29.60;96263.16;5080615;28;20020;-31
2023/08/26 03:53:46;;;;;;;8.02;6.63;;;;;;;31.30;29.57;96263.66;5079744;28;20069;-30
2023/08/26 03:56:13;;;;;;;7.85;6.93;;;;;;;31.29;29.97;96265.72;5080915;28;20053;-30
2023/08/26 03:58:39;;;;;;;8.43;7.03;;;;;;;31.37;30.16;96265.69;5078229;28;20031;-30
2023/08/26 04:01:05;;;;;;;8.55;7.45;;;;;;;31.43;29.96;96269.00;5082121;28;20115;-31
2023/08/26 04:03:31;;;;;;;11.52;7.40;;;;;;;31.47;30.65;96263.75;5083943;28;20157;-31
2023/08/26 04:05:59;;;;;;;7.85;7.03;;;;;;;31.45;30.19;96265.63;5077047;28;20385;-30
2023/08/26 04:08:24;;;;;;;9.98;7.50;;;;;;;31.51;30.89;96254.94;5087556;28;20394;-30
2023/08/26 04:10:57;;;;;;;8.45;7.10;;;;;;;31.63;30.53;96264.38;5072907;28;20024;-30
2023/08/26 04:13:24;;;;;;;10.43;7.20;;;;;;;31.57;31.11;96267.41;5080490;28;20524;-31
2023/08/26 04:15:55;;;;;;;9.88;6.90;;;;;;;31.56;31.86;96265.19;5079273;28;20065;-30
2023/08/26 04:18:22;;;;;;;8.38;6.85;;;;;;;31.58;31.85;96271.72;5087815;28;20024;-30
2023/08/26 04:20:50;;;;;;;7.43;6.72;;;;;;;31.53;31.86;96272.66;5080094;28;20486;-31
2023/08/26 04:23:16;;;;;;;10.45;6.32;;;;;;;31.41;32.07;96272.38;5073269;28;20036;-31
2023/08/26 04:25:42;;;;;;;9.40;6.90;;;;;;;31.43;31.96;96275.34;5079492;28;20066;-31
2023/08/26 04:28:08;;;;;;;10.13;7.22;;;;;;;31.35;32.49;96285.13;5080298;28;20020;-31
2023/08/26 04:30:36;;;;;;;10.10;7.10;;;;;;;31.38;32.45;96281.19;5081562;28;20130;-32
2023/08/26 04:33:01;;;;;;;10.25;6.72;;;;;;;31.54;31.95;96288.16;5080079;28;20393;-32
2023/08/26 04:35:27;;;;;;;8.90;6.82;;;;;;;31.53;31.76;96283.88;5080563;28;20013;-30
2023/08/26 04:37:52;;;;;;;7.88;7.07;;;;;;;31.40;32.35;96287.69;5083904;28;20020;-30
2023/08/26 04:40:18;;;;;;;9.35;7.65;;;;;;;31.51;32.22;96286.53;5081334;28;20485;-31
2023/08/26 04:42:44;;;;;;;7.28;6.57;;;;;;;31.46;31.87;96286.75;5086435;28;20082;-31
2023/08/26 04:45:12;;;;;;;8.15;7.25;;;;;;;31.51;32.21;96283.72;5076073;28;20054;-30
2023/08/26 04:47:38;;;;;;;9.82;7.30;;;;;;;31.58;32.09;96287.78;5083550;28;20020;-30
2023/08/26 04:50:04;;;;;;;8.63;7.45;;;;;;;31.59;32.40;96292.81;5077869;28;20031;-31
2023/08/26 04:52:29;;;;;;;9.60;8.10;;;;;;;31.44;33.08;96287.31;5082261;28;20020;-30
2023/08/26 04:54:55;;;;;;;8.65;7.85;;;;;;;31.54;33.07;96293.78;5083528;28;20020;-32
2023/08/26 04:57:20;;;;;;;8.77;7.57;;;;;;;31.54;33.13;96287.44;5083329;28;20023;-31
2023/08/26 04:59:46;;;;;;;10.40;7.88;;;;;;;31.67;33.10;96296.31;5089589;28;20020;-31
2023/08/26 05:02:11;;;;;;;9.38;8.10;;;;;;;31.55;32.86;96295.25;5077787;28;20436;-30
2023/08/26 05:04:37;;;;;;;10.35;7.90;;;;;;;31.57;32.99;96294.69;5082764;28;20028;-30
2023/08/26 05:07:03;;;;;;;10.77;8.57;;;;;;;31.65;32.39;96296.16;5082856;28;20032;-32
2023/08/26 05:09:29;;;;;;;12.13;7.97;;;;;;;31.58;32.77;96299.00;5083802;28;20017;-30
2023/08/26 05:11:57;;;;;;;9.93;8.90;;;;;;;31.44;32.61;96292.91;5083018;28;20056;-30
2023/08/26 05:14:25;;;;;;;10.18;9.00;;;;;;;31.59;32.20;96301.22;5082902;28;20060;-31
2023/08/26 05:16:51;;;;;;;10.80;8.27;;;;;;;31.61;32.27;96301.41;5079897;28;20111;-31
2023/08/26 05:19:16;;;;;;;12.77;9.02;;;;;;;31.59;32.48;96304.03;5085968;28;20023;-30
2023/08/26 05:21:42;;;;;;;9.88;8.88;;;;;;;31.54;32.34;96296.56;5078951;28;20051;-30
2023/08/26 05:24:07;;;;;;;10.90;8.73;;;;;;;31.67;31.84;96296.31;5088146;28;20487;-30
2023/08/26 05:26:33;;;;;;;13.98;8.77;;;;;;;31.66;32.31;96302.50;5076040;28;20025;-31
2023/08/26 05:28:59;;;;;;;10.75;8.45;;;;;;;31.61;32.58;96300.66;5080877;28;20025;-30
2023/08/26 05:31:24;;;;;;;10.57;9.27;;;;;;;31.61;32.54;96306.25;5089910;28;20027;-31
2023/08/26 05:33:50;;;;;;;10.35;9.27;;;;;;;31.66;32.32;96303.25;5075771;28;20032;-30
2023/08/26 05:36:15;;;;;;;10.80;8.85;;;;;;;31.49;32.19;96308.03;5082561;28;20377;-30
2023/08/26 05:38:41;;;;;;;12.48;9.27;;;;;;;31.59;32.38;96306.84;5082496;28;20036;-32
2023/08/26 05:41:06;;;;;;;10.50;9.25;;;;;;;31.32;32.79;96306.63;5078764;28;20020;-30
2023/08/26 05:43:32;;;;;;;11.88;8.85;;;;;;;31.31;32.33;96305.13;5085438;28;20024;-30
2023/08/26 05:45:57;;;;;;;13.65;8.77;;;;;;;31.51;32.15;96308.94;5083285;28;20016;-31
2023/08/26 05:48:23;;;;;;;10.73;8.98;;;;;;;31.69;32.22;96310.53;5073863;28;20350;-30
2023/08/26 05:50:48;;;;;;;13.00;9.43;;;;;;;31.57;32.61;96311.53;5075021;28;20033;-30
2023/08/26 05:53:13;;;;;;;10.35;9.23;;;;;;;31.66;32.79;96311.66;5083194;28;20024;-31
2023/08/26 05:55:42;;;;;;;12.55;8.88;;;;;;;31.61;33.78;96314.69;5080977;28;20035;-31
2023/08/26 05:58:07;;;;;;;12.90;9.00;;;;;;;31.70;33.33;96314.06;5077589;28;20488;-30
2023/08/26 06:00:34;;;;;;;9.60;8.60;;;;;;;31.46;33.83;96312.72;5085603;28;20027;-30
2023/08/26 06:03:00;;;;;;;10.93;8.77;;;;;;;31.56;34.42;96315.63;5077853;28;20481;-31
2023/08/26 06:05:25;;;;;;;11.40;9.02;;;;;;;31.43;34.14;96314.59;5077147;28;20070;-31
2023/08/26 06:07:51;;;;;;;10.93;8.30;;;;;;;31.56;33.46;96321.25;5080001;28;20020;-30
2023/08/26 06:10:17;;;;;;;11.40;8.93;;;;;;;31.57;33.26;96311.53;5082889;28;20033;-30
2023/08/26 06:12:43;;;;;;;16.67;9.20;;;;;;;31.65;33.73;96312.25;5082115;28;20525;-31
2023/08/26 06:15:09;;;;;;;11.10;8.25;;;;;;;31.51;34.62;96308.94;5089279;28;20157;-31
2023/08/26 06:17:35;;;;;;;12.73;9.02;;;;;;;31.59;34.33;96314.50;5081827;28;20046;-30
2023/08/26 06:20:03;;;;;;;16.23;9.20;;;;;;;31.38;35.10;96318.38;5081842;28;20025;-30
2023/08/26 06:22:29;;;;;;;11.88;8.65;;;;;;;31.57;35.53;96317.88;5082014;28;20027;-30
2023/08/26 06:24:55;;;;;;;13.65;8.52;;;;;;;31.61;35.41;96318.22;5085280;28;20138;-30
2023/08/26 06:27:20;;;;;;;11.13;9.52;;;;;;;31.48;35.69;96314.94;5085414;28;20028;-31
2023/08/26 06:29:57;;;;;;;9.85;8.93;;;;;;;31.37;36.18;96314.06;5075622;28;20043;-30
2023/08/26 06:32:23;;;;;;;11.10;8.60;;;;;;;31.57;35.46;96312.25;5085325;28;20032;-31
2023/08/26 06:34:49;;;;;;;10.90;8.15;;;;;;;31.57;35.36;96317.88;5083329;28;20024;-31
2023/08/26 06:37:14;;;;;;;11.18;8.27;;;;;;;31.50;35.90;96313.06;5086917;28;20017;-31
2023/08/26 06:39:40;;;;;;;12.25;8.65;;;;;;;31.52;36.39;96321.66;5073952;28;20037;-31
2023/08/26 06:42:06;;;;;;;14.38;8.73;;;;;;;31.34;36.61;96328.47;5081969;28;20031;-30
2023/08/26 06:44:31;;;;;;;12.73;9.05;;;;;;;31.39;36.57;96335.94;5081534;28;20017;-30
2023/08/26 06:46:57;;;;;;;11.77;8.70;;;;;;;31.33;36.83;96329.78;5081221;28;20385;-30
2023/08/26 06:49:22;;;;;;;10.38;8.15;;;;;;;31.62;36.06;96330.94;5081255;28;20428;-30
2023/08/26 06:51:48;;;;;;;9.90;7.82;;;;;;;31.62;35.08;96330.94;5081079;28;20031;-30
2023/08/26 06:54:13;;;;;;;9.68;7.97;;;;;;;31.53;33.88;96336.41;5080942;28;20020;-31
2023/08/26 06:56:39;;;;;;;9.15;7.68;;;;;;;31.42;33.37;96335.53;5079049;28;20461;-32
2023/08/26 06:59:04;;;;;;;8.77;7.88;;;;;;;31.50;33.54;96331.94;5076700;28;20021;-31
2023/08/26 07:01:31;;;;;;;11.23;8.00;;;;;;;31.45;33.33;96328.03;5080919;28;20020;-30
2023/08/26 07:04:09;;;;;;;12.63;7.95;;;;;;;31.46;33.62;96337.19;5080422;28;20030;-31
2023/08/26 07:06:36;;;;;;;10.35;7.53;;;;;;;31.44;33.21;96332.16;5080762;28;20040;-30
2023/08/26 07:09:04;;;;;;;8.85;7.72;;;;;;;31.46;33.20;96329.53;5080720;28;20016;-30
2023/08/26 07:11:29;;;;;;;10.77;7.32;;;;;;;31.62;32.94;96328.13;5080912;28;20065;-31
2023/08/26 07:13:55;;;;;;;10.48;7.50;;;;;;;31.41;32.20;96334.03;5078481;28;20465;-32
2023/08/26 07:16:21;;;;;;;11.07;7.30;;;;;;;31.55;32.47;96330.97;5075850;28;20031;-30
2023/08/26 07:18:46;;;;;;;8.60;7.40;;;;;;;31.69;31.81;96330.16;5084344;28;20012;-31
2023/08/26 07:21:12;;;;;;;9.18;6.68;;;;;;;31.60;32.36;96333.56;5076214;28;20115;-31
2023/08/26 07:23:38;;;;;;;9.35;7.45;;;;;;;31.69;32.17;96330.16;5082365;28;20027;-31
2023/08/26 07:26:03;;;;;;;10.80;7.50;;;;;;;31.61;32.22;96342.72;5079035;28;20023;-31
2023/08/26 07:28:29;;;;;;;10.05;7.25;;;;;;;31.66;32.11;96336.88;5081099;28;20072;-31
2023/08/26 07:31:04;;;;;;;8.48;7.50;;;;;;;31.68;31.84;96342.69;5081014;28;20095;-33
2023/08/26 07:33:30;;;;;;;14.25;7.40;;;;;;;31.83;31.98;96343.88;5080677;28;20103;-31
2023/08/26 07:36:07;;;;;;;11.40;7.32;;;;;;;31.76;32.11;96337.78;5080649;28;20067;-32
2023/08/26 07:38:34;;;;;;;9.80;7.20;;;;;;;31.67;32.18;96343.25;5087288;28;20016;-30
2023/08/26 07:40:59;;;;;;;9.30;6.82;;;;;;;31.94;31.64;96343.44;5080529;28;20044;-31
2023/08/26 07:43:25;;;;;;;10.80;7.32;;;;;;;32.03;31.17;96345.59;5080591;28;20048;-31
2023/08/26 07:45:51;;;;;;;8.52;7.63;;;;;;;32.08;31.32;96347.44;5080533;28;20074;-31
2023/08/26 07:48:16;;;;;;;7.97;6.75;;;;;;;32.03;30.51;96342.78;5076833;28;20027;-31
2023/08/26 07:50:42;;;;;;;10.13;6.65;;;;;;;32.04;31.31;96344.28;5082061;28;20039;-31
2023/08/26 07:53:07;;;;;;;7.32;6.57;;;;;;;32.03;30.95;96348.41;5080065;28;20024;-31
2023/08/26 07:55:33;;;;;;;10.20;6.85;;;;;;;32.17;31.00;96343.25;5080330;28;20587;-31
2023/08/26 07:57:58;;;;;;;8.82;6.82;;;;;;;32.25;30.75;96341.91;5080709;28;20029;-31
2023/08/26 08:00:24;;;;;;;10.15;6.43;;;;;;;32.08;30.49;96342.56;5081278;28;20017;-30
2023/08/26 08:02:49;;;;;;;7.78;6.63;;;;;;;32.31;30.51;96336.78;5080104;28;20017;-31
2023/08/26 08:05:15;;;;;;;7.85;6.60;;;;;;;32.25;30.18;96349.56;5081473;28;20023;-31
2023/08/26 08:07:40;;;;;;;7.22;6.53;;;;;;;32.29;30.21;96347.84;5088438;28;20099;-32
2023/08/26 08:10:08;;;;;;;9.90;6.63;;;;;;;32.34;29.48;96340.50;5087028;28;20089;-31
2023/08/26 08:12:34;;;;;;;7.97;6.80;;;;;;;32.34;29.95;96341.25;5086770;28;20020;-31
2023/08/26 08:14:59;;;;;;;8.65;7.20;;;;;;;32.10;29.96;96333.59;5087236;28;20027;-31
2023/08/26 08:17:25;;;;;;;10.90;7.47;;;;;;;32.33;29.68;96334.16;5078525;28;20024;-31
2023/08/26 08:19:50;;;;;;;11.88;6.90;;;;;;;32.34;29.91;96349.66;5084337;28;20107;-32
2023/08/26 08:22:16;;;;;;;10.40;7.22;;;;;;;32.27;29.74;96339.25;5083655;28;20074;-30
2023/08/26 08:24:43;;;;;;;7.55;6.60;;;;;;;32.21;30.21;96344.34;5083665;28;20016;-31
2023/08/26 08:27:08;;;;;;;10.73;7.28;;;;;;;32.36;30.32;96343.47;5081913;28;20024;-31
2023/08/26 08:29:34;;;;;;;12.75;7.22;;;;;;;32.33;30.09;96339.75;5086127;28;20047;-31
2023/08/26 08:32:00;;;;;;;8.48;7.10;;;;;;;32.35;30.26;96342.75;5083874;28;20052;-31
2023/08/26 08:34:26;;;;;;;9.40;7.07;;;;;;;32.32;30.08;96338.28;5083665;28;20028;-31
2023/08/26 08:36:51;;;;;;;6.88;6.15;;;;;;;32.21;29.61;96343.63;5077175;28;20036;-31
2023/08/26 08:39:17;;;;;;;8.05;6.95;;;;;;;32.37;30.12;96342.91;5081800;28;20048;-30
2023/08/26 08:41:47;;;;;;;11.25;7.15;;;;;;;32.34;29.91;96346.13;5091266;28;20108;-31
2023/08/26 08:44:15;;;;;;;9.82;6.68;;;;;;;32.44;28.43;96346.94;5083905;28;20520;-31
2023/08/26 08:46:41;;;;;;;9.15;7.05;;;;;;;32.33;28.80;96336.94;5083777;28;20473;-31
2023/08/26 08:49:07;;;;;;;8.98;6.03;;;;;;;32.40;29.10;96338.19;5084276;28;20036;-31
2023/08/26 08:51:33;;;;;;;13.65;7.57;;;;;;;32.41;28.79;96334.81;5083717;28;20027;-31
2023/08/26 08:54:02;;;;;;;12.40;9.10;;;;;;;32.42;29.00;96344.72;5083947;28;20055;-31
2023/08/26 08:56:30;;;;;;;10.45;7.85;;;;;;;32.45;28.62;96348.44;5086587;28;20016;-31
2023/08/26 08:58:57;;;;;;;8.60;6.95;;;;;;;32.45;28.83;96340.75;5086600;28;20031;-31
2023/08/26 09:01:24;;;;;;;8.98;6.15;;;;;;;32.53;27.89;96339.94;5085911;28;20028;-30
2023/08/26 09:03:50;;;;;;;7.82;7.10;;;;;;;32.47;27.79;96340.94;5087954;28;20025;-30
2023/08/26 09:06:19;;;;;;;8.80;6.30;;;;;;;32.48;27.34;96339.63;5084383;28;20478;-31
2023/08/26 09:08:45;;;;;;;8.63;6.22;;;;;;;32.44;27.40;96344.16;5089485;28;20374;-32
2023/08/26 09:11:12;;;;;;;6.63;5.47;;;;;;;32.53;27.09;96337.88;5083429;28;20100;-31
2023/08/26 09:13:37;;;;;;;8.35;5.65;;;;;;;32.45;27.01;96340.03;5085914;28;20028;-30
2023/08/26 09:16:04;;;;;;;8.10;5.80;;;;;;;32.42;25.98;96339.09;5079018;28;20056;-31
2023/08/26 09:18:30;;;;;;;6.38;5.72;;;;;;;32.48;26.64;96334.00;5089833;28;20043;-32
2023/08/26 09:20:55;;;;;;;6.70;5.55;;;;;;;32.57;26.68;96337.47;5087053;28;20020;-31
2023/08/26 09:23:21;;;;;;;6.45;5.80;;;;;;;32.49;26.31;96340.38;5078659;28;20458;-31
2023/08/26 09:25:54;;;;;;;9.25;5.70;;;;;;;32.61;26.98;96346.97;5083445;28;20031;-31
2023/08/26 09:28:21;;;;;;;6.43;5.50;;;;;;;32.54;26.53;96347.03;5083146;28;20028;-31
2023/08/26 09:31:06;;;;;;;6.18;5.57;;;;;;;32.60;26.11;96330.69;5082983;28;20074;-31
2023/08/26 09:33:31;;;;;;;6.75;5.55;;;;;;;32.66;26.33;96340.34;5090190;28;20354;-31
2023/08/26 09:35:58;;;;;;;8.20;6.13;;;;;;;32.75;26.40;96344.63;5077703;28;20013;-31
2023/08/26 09:38:24;;;;;;;7.07;5.78;;;;;;;32.63;26.10;96338.72;5080364;28;20020;-31
2023/08/26 09:40:55;;;;;;;7.78;6.07;;;;;;;32.67;26.43;96349.53;5082680;28;20020;-31
2023/08/26 09:43:20;;;;;;;7.82;6.22;;;;;;;32.70;26.61;96346.31;5082630;28;20430;-31
2023/08/26 09:45:47;;;;;;;11.15;6.70;;;;;;;32.68;26.00;96342.59;5082157;28;20098;-31
2023/08/26 09:48:20;;;;;;;10.98;6.30;;;;;;;32.68;26.03;96340.53;5085461;28;20027;-31
2023/08/26 09:50:46;;;;;;;11.93;6.03;;;;;;;32.67;26.45;96344.66;5085266;28;20042;-30
2023/08/26 09:53:12;;;;;;;12.52;5.88;;;;;;;32.77;26.32;96339.13;5082099;28;20016;-31
2023/08/26 09:55:39;;;;;;;8.70;5.65;;;;;;;32.75;25.73;96339.00;5080740;28;20126;-31
2023/08/26 09:58:04;;;;;;;8.35;5.55;;;;;;;32.75;25.83;96341.81;5083567;28;20031;-31
2023/08/26 10:00:31;;;;;;;8.07;5.47;;;;;;;32.80;26.07;96344.34;5082372;28;20017;-31
2023/08/26 10:03:01;;;;;;;10.02;5.60;;;;;;;32.71;26.02;96339.41;5089545;28;20380;-31
2023/08/26 10:05:28;;;;;;;7.28;5.82;;;;;;;32.77;25.65;96348.31;5084783;28;20016;-31
2023/08/26 10:07:54;;;;;;;7.15;5.38;;;;;;;32.79;26.00;96334.44;5079526;28;20385;-30
2023/08/26 10:10:31;;;;;;;6.55;4.90;;;;;;;32.86;25.55;96332.88;5082411;28;20085;-31
2023/08/26 10:13:01;;;;;;;7.45;5.20;;;;;;;32.86;25.78;96332.88;5073330;28;20036;-31
2023/08/26 10:15:29;;;;;;;7.20;5.47;;;;;;;32.90;25.39;96336.00;5081955;28;20032;-32
2023/08/26 10:17:58;;;;;;;8.80;4.70;;;;;;;32.86;25.40;96332.88;5081728;28;20483;-31
2023/08/26 10:20:23;;;;;;;7.30;5.40;;;;;;;32.85;25.63;96330.66;5082047;28;20028;-30
2023/08/26 10:22:49;;;;;;;6.53;5.20;;;;;;;32.87;24.96;96334.38;5081689;28;20039;-32
2023/08/26 10:25:15;;;;;;;5.28;4.75;;;;;;;32.87;24.75;96331.56;5080727;28;20386;-31
2023/08/26 10:27:41;;;;;;;6.53;5.15;;;;;;;32.90;25.17;96326.81;5083918;28;20385;-31
2023/08/26 10:30:08;;;;;;;6.72;5.10;;;;;;;32.91;25.09;96329.06;5080879;28;20436;-31
2023/08/26 10:32:43;;;;;;;5.72;4.65;;;;;;;32.90;25.42;96336.00;5081635;28;20021;-31
2023/08/26 10:35:13;;;;;;;8.73;5.38;;;;;;;32.94;25.38;96329.97;5078533;28;20081;-31
2023/08/26 10:37:42;;;;;;;10.55;5.50;;;;;;;32.98;25.23;96321.88;5076667;28;20024;-31
2023/08/26 10:40:12;;;;;;;5.93;5.03;;;;;;;33.02;25.72;96322.94;5074345;28;20460;-32
2023/08/26 10:42:38;;;;;;;8.68;5.53;;;;;;;33.07;25.73;96327.56;5072819;28;20365;-31
2023/08/26 10:45:15;;;;;;;9.35;5.38;;;;;;;33.05;25.49;96318.97;5083852;28;20016;-31
2023/08/26 10:47:45;;;;;;;6.45;5.50;;;;;;;33.02;25.34;96322.19;5085125;28;20019;-31
2023/08/26 10:50:16;;;;;;;6.50;5.30;;;;;;;33.09;25.68;96319.28;5081612;28;20017;-31
2023/08/26 10:52:45;;;;;;;9.60;6.03;;;;;;;33.05;25.77;96324.59;5081040;28;20024;-31
2023/08/26 10:55:32;;;;;;;6.82;5.72;;;;;;;33.01;25.47;96317.91;5081090;28;20052;-32
2023/08/26 10:58:06;;;;;;;9.43;5.60;;;;;;;33.15;25.89;96316.94;5074151;28;20027;-31
2023/08/26 11:00:32;;;;;;;7.95;5.28;;;;;;;33.11;25.79;96318.72;5078195;28;20028;-31
2023/08/26 11:03:00;;;;;;;7.18;5.35;;;;;;;33.12;26.11;96308.97;5077100;28;20531;-31
2023/08/26 11:05:25;;;;;;;7.70;5.85;;;;;;;33.17;26.25;96310.75;5081151;28;20069;-32
2023/08/26 11:07:51;;;;;;;7.00;5.55;;;;;;;33.14;26.16;96312.66;5086631;28;20103;-31
2023/08/26 11:10:34;;;;;;;6.93;5.40;;;;;;;33.13;26.01;96311.19;5075568;28;20031;-30
2023/08/26 11:13:00;;;;;;;7.53;5.97;;;;;;;33.18;26.35;96306.63;5078444;28;20473;-31
2023/08/26 11:15:39;;;;;;;6.95;5.38;;;;;;;33.17;26.01;96302.31;5081900;28;20035;-31
2023/08/26 11:18:06;;;;;;;7.65;5.80;;;;;;;33.17;26.01;96305.88;5084288;28;20477;-31
2023/08/26 11:20:31;;;;;;;6.95;6.25;;;;;;;33.22;25.92;96300.59;5082824;28;20031;-31
2023/08/26 11:22:57;;;;;;;10.18;6.13;;;;;;;33.25;25.65;96305.06;5079545;28;20017;-31
2023/08/26 11:25:23;;;;;;;8.07;6.15;;;;;;;33.25;26.08;96310.69;5080548;28;20028;-30
2023/08/26 11:27:49;;;;;;;7.00;6.30;;;;;;;33.24;25.71;96300.78;5080769;28;20024;-31
2023/08/26 11:30:14;;;;;;;6.82;6.05;;;;;;;33.24;25.71;96300.78;5079611;28;20024;-31